createdAt,value
2022-12-06T00:00:56.679Z,0.00
2022-12-06T00:01:56.734Z,0.00
2022-12-06T00:02:56.694Z,0.00
2022-12-06T00:03:56.594Z,0.00
2022-12-06T00:04:56.570Z,0.00
2022-12-06T00:05:56.541Z,0.00
2022-12-06T00:06:56.505Z,0.00
2022-12-06T00:07:56.613Z,0.00
2022-12-06T00:08:56.450Z,0.00
2022-12-06T00:09:56.594Z,0.00
2022-12-06T00:10:56.392Z,0.00
2022-12-06T00:11:56.372Z,0.00
2022-12-06T00:12:56.338Z,0.00
2022-12-06T00:13:56.319Z,0.00
2022-12-06T00:14:56.286Z,0.00
2022-12-06T00:15:56.316Z,0.00
2022-12-06T00:16:56.263Z,0.00
2022-12-06T00:17:56.204Z,0.00
2022-12-06T00:18:56.174Z,0.00
2022-12-06T00:19:56.163Z,0.00
2022-12-06T00:20:56.119Z,0.00
2022-12-06T00:21:56.085Z,0.00
2022-12-06T00:22:56.057Z,0.00
2022-12-06T00:23:56.056Z,0.00
2022-12-06T00:24:56.002Z,0.00
2022-12-06T00:25:55.976Z,0.00
2022-12-06T00:26:55.945Z,0.00
2022-12-06T00:27:55.921Z,0.00
2022-12-06T00:28:55.895Z,0.00
2022-12-06T00:29:55.864Z,0.00
2022-12-06T00:30:55.831Z,0.00
2022-12-06T00:31:55.896Z,0.00
2022-12-06T00:32:55.776Z,0.00
2022-12-06T00:33:55.750Z,0.00
2022-12-06T00:34:55.718Z,0.00
2022-12-06T00:35:55.693Z,0.00
2022-12-06T00:36:55.662Z,0.00
2022-12-06T00:37:55.639Z,0.00
2022-12-06T00:38:55.611Z,0.00
2022-12-06T00:39:55.597Z,0.00
2022-12-06T00:40:55.546Z,0.00
2022-12-06T00:41:55.524Z,0.00
2022-12-06T00:42:55.490Z,0.00
2022-12-06T00:43:55.468Z,0.00
2022-12-06T00:44:55.435Z,0.00
2022-12-06T00:45:55.438Z,0.00
2022-12-06T00:46:55.380Z,0.00
2022-12-06T00:47:55.351Z,0.00
2022-12-06T00:48:55.322Z,0.00
2022-12-06T00:49:55.295Z,0.00
2022-12-06T00:50:55.266Z,0.00
2022-12-06T00:51:55.275Z,0.00
2022-12-06T00:52:55.214Z,0.00
2022-12-06T00:53:55.188Z,0.00
2022-12-06T00:54:55.153Z,0.00
2022-12-06T00:55:55.150Z,0.00
2022-12-06T00:56:55.097Z,0.00
2022-12-06T00:57:55.075Z,0.00
2022-12-06T00:58:55.046Z,0.00
2022-12-06T00:59:55.023Z,0.00
2022-12-06T01:00:55.035Z,0.00
2022-12-06T01:01:54.956Z,0.00
2022-12-06T01:02:54.962Z,0.00
2022-12-06T01:03:54.904Z,0.00
2022-12-06T01:04:54.871Z,0.00
2022-12-06T01:05:54.846Z,0.00
2022-12-06T01:06:54.818Z,0.00
2022-12-06T01:07:54.903Z,0.00
2022-12-06T01:08:54.757Z,0.00
2022-12-06T01:09:54.733Z,0.00
2022-12-06T01:10:54.704Z,0.00
2022-12-06T01:11:54.699Z,0.00
2022-12-06T01:12:54.646Z,0.00
2022-12-06T01:13:54.625Z,0.00
2022-12-06T01:14:54.587Z,0.00
2022-12-06T01:15:54.564Z,0.00
2022-12-06T01:16:54.598Z,0.00
2022-12-06T01:17:54.511Z,0.00
2022-12-06T01:18:54.479Z,0.00
2022-12-06T01:19:54.455Z,0.00
2022-12-06T01:20:54.418Z,0.00
2022-12-06T01:21:54.393Z,0.00
2022-12-06T01:22:54.365Z,0.00
2022-12-06T01:23:54.376Z,0.00
2022-12-06T01:24:54.307Z,0.00
2022-12-06T01:25:54.282Z,0.00
2022-12-06T01:26:54.248Z,0.00
2022-12-06T01:27:54.242Z,0.00
2022-12-06T01:28:54.198Z,0.00
2022-12-06T01:29:54.167Z,0.00
2022-12-06T01:30:54.205Z,0.00
2022-12-06T01:31:54.120Z,0.00
2022-12-06T01:32:54.083Z,0.00
2022-12-06T01:33:54.060Z,0.00
2022-12-06T01:34:54.024Z,0.00
2022-12-06T01:35:54.005Z,0.00
2022-12-06T01:36:53.972Z,0.00
2022-12-06T01:37:53.944Z,0.00
2022-12-06T01:38:53.908Z,0.00
2022-12-06T01:39:53.890Z,0.00
2022-12-06T01:40:53.856Z,0.00
2022-12-06T01:41:53.830Z,0.00
2022-12-06T01:42:53.801Z,0.00
2022-12-06T01:43:53.795Z,0.00
2022-12-06T01:44:53.747Z,0.00
2022-12-06T01:45:53.800Z,0.00
2022-12-06T01:46:53.692Z,0.00
2022-12-06T01:47:53.659Z,0.00
2022-12-06T01:48:53.629Z,0.00
2022-12-06T01:49:53.607Z,0.00
2022-12-06T01:50:53.575Z,0.00
2022-12-06T01:51:53.552Z,0.00
2022-12-06T01:52:53.522Z,0.00
2022-12-06T01:53:53.498Z,0.00
2022-12-06T01:54:53.459Z,0.00
2022-12-06T01:55:53.441Z,0.00
2022-12-06T01:56:53.416Z,0.00
2022-12-06T01:57:53.390Z,0.00
2022-12-06T01:58:53.349Z,0.00
2022-12-06T01:59:53.343Z,0.00
2022-12-06T02:00:53.300Z,0.00
2022-12-06T02:01:53.373Z,0.00
2022-12-06T02:02:53.311Z,0.00
2022-12-06T02:03:53.208Z,0.00
2022-12-06T02:04:53.181Z,0.00
2022-12-06T02:05:53.152Z,0.00
2022-12-06T02:06:53.125Z,0.00
2022-12-06T02:07:53.145Z,0.00
2022-12-06T02:08:53.070Z,0.00
2022-12-06T02:09:53.035Z,0.00
2022-12-06T02:10:53.009Z,0.00
2022-12-06T02:11:52.981Z,0.00
2022-12-06T02:12:52.963Z,0.00
2022-12-06T02:13:52.923Z,0.00
2022-12-06T02:14:52.904Z,0.00
2022-12-06T02:15:52.893Z,0.00
2022-12-06T02:16:52.975Z,0.00
2022-12-06T02:17:52.821Z,0.00
2022-12-06T02:18:52.794Z,0.00
2022-12-06T02:19:52.759Z,0.00
2022-12-06T02:20:52.746Z,0.00
2022-12-06T02:21:52.706Z,0.00
2022-12-06T02:22:52.677Z,0.00
2022-12-06T02:23:52.659Z,0.00
2022-12-06T02:24:52.620Z,0.00
2022-12-06T02:25:52.590Z,0.00
2022-12-06T02:26:52.562Z,0.00
2022-12-06T02:27:52.535Z,0.00
2022-12-06T02:28:52.505Z,0.00
2022-12-06T02:29:52.475Z,0.00
2022-12-06T02:30:52.506Z,0.00
2022-12-06T02:31:52.452Z,0.00
2022-12-06T02:32:55.138Z,0.00
2022-12-06T02:33:52.367Z,0.00
2022-12-06T02:34:52.339Z,0.00
2022-12-06T02:35:52.306Z,0.00
2022-12-06T02:36:52.284Z,0.00
2022-12-06T02:37:52.264Z,0.00
2022-12-06T02:38:52.230Z,0.00
2022-12-06T02:39:52.193Z,0.00
2022-12-06T02:40:52.171Z,0.00
2022-12-06T02:41:52.136Z,0.00
2022-12-06T02:42:52.112Z,0.00
2022-12-06T02:43:52.078Z,0.00
2022-12-06T02:44:52.056Z,0.00
2022-12-06T02:45:52.115Z,0.00
2022-12-06T02:46:52.000Z,0.00
2022-12-06T02:47:51.987Z,0.00
2022-12-06T02:48:51.943Z,0.00
2022-12-06T02:49:51.918Z,0.00
2022-12-06T02:50:51.891Z,0.00
2022-12-06T02:51:51.855Z,0.00
2022-12-06T02:52:51.835Z,0.00
2022-12-06T02:53:51.810Z,0.00
2022-12-06T02:54:51.771Z,0.00
2022-12-06T02:55:51.746Z,0.00
2022-12-06T02:56:51.717Z,0.00
2022-12-06T02:57:51.690Z,0.00
2022-12-06T02:58:51.661Z,0.00
2022-12-06T02:59:51.630Z,0.00
2022-12-06T03:00:51.612Z,0.00
2022-12-06T03:01:51.630Z,0.00
2022-12-06T03:02:51.616Z,0.00
2022-12-06T03:03:51.542Z,0.00
2022-12-06T03:04:51.496Z,0.00
2022-12-06T03:05:51.463Z,0.00
2022-12-06T03:06:51.434Z,0.00
2022-12-06T03:07:51.447Z,0.00
2022-12-06T03:08:51.384Z,0.00
2022-12-06T03:09:51.354Z,0.00
2022-12-06T03:10:51.324Z,0.00
2022-12-06T03:11:51.295Z,0.00
2022-12-06T03:12:51.270Z,0.00
2022-12-06T03:13:51.242Z,0.00
2022-12-06T03:14:51.213Z,0.00
2022-12-06T03:15:51.272Z,0.00
2022-12-06T03:16:51.158Z,0.00
2022-12-06T03:17:51.125Z,0.00
2022-12-06T03:18:51.103Z,0.00
2022-12-06T03:19:51.086Z,0.00
2022-12-06T03:20:51.042Z,0.00
2022-12-06T03:21:51.015Z,0.00
2022-12-06T03:22:50.987Z,0.00
2022-12-06T03:23:50.957Z,0.00
2022-12-06T03:24:50.934Z,0.00
2022-12-06T03:25:50.903Z,0.00
2022-12-06T03:26:50.877Z,0.00
2022-12-06T03:27:50.848Z,0.00
2022-12-06T03:28:50.819Z,0.00
2022-12-06T03:29:50.787Z,0.00
2022-12-06T03:30:50.819Z,0.00
2022-12-06T03:31:50.733Z,0.00
2022-12-06T03:32:50.709Z,0.00
2022-12-06T03:33:50.676Z,0.00
2022-12-06T03:34:50.653Z,0.00
2022-12-06T03:35:50.640Z,0.00
2022-12-06T03:36:50.591Z,0.00
2022-12-06T03:37:50.567Z,0.00
2022-12-06T03:38:50.534Z,0.00
2022-12-06T03:39:50.505Z,0.00
2022-12-06T03:40:50.483Z,0.00
2022-12-06T03:41:50.454Z,0.00
2022-12-06T03:42:50.429Z,0.00
2022-12-06T03:43:50.403Z,0.00
2022-12-06T03:44:50.368Z,0.00
2022-12-06T03:45:50.411Z,0.00
2022-12-06T03:46:50.388Z,0.00
2022-12-06T03:47:50.282Z,0.00
2022-12-06T03:48:50.258Z,0.00
2022-12-06T03:49:50.228Z,0.00
2022-12-06T03:50:53.035Z,0.00
2022-12-06T03:51:50.197Z,0.00
2022-12-06T03:52:50.147Z,0.00
2022-12-06T03:53:50.119Z,0.00
2022-12-06T03:54:50.089Z,0.00
2022-12-06T03:55:50.055Z,0.00
2022-12-06T03:56:50.039Z,0.00
2022-12-06T03:57:50.002Z,0.00
2022-12-06T03:58:49.976Z,0.00
2022-12-06T03:59:49.945Z,0.00
2022-12-06T04:00:49.925Z,0.00
2022-12-06T04:01:49.969Z,0.00
2022-12-06T04:02:49.866Z,0.00
2022-12-06T04:03:49.907Z,0.00
2022-12-06T04:04:49.813Z,0.00
2022-12-06T04:05:49.775Z,0.00
2022-12-06T04:06:49.757Z,0.00
2022-12-06T04:07:49.752Z,0.00
2022-12-06T04:08:49.695Z,0.00
2022-12-06T04:09:49.669Z,0.00
2022-12-06T04:10:49.639Z,0.00
2022-12-06T04:11:49.608Z,0.00
2022-12-06T04:12:49.588Z,0.00
2022-12-06T04:13:49.550Z,0.00
2022-12-06T04:14:49.526Z,0.00
2022-12-06T04:15:49.574Z,0.00
2022-12-06T04:16:49.473Z,0.00
2022-12-06T04:17:49.445Z,0.00
2022-12-06T04:18:49.424Z,0.00
2022-12-06T04:19:52.055Z,0.00
2022-12-06T04:20:49.358Z,0.00
2022-12-06T04:21:49.328Z,0.00
2022-12-06T04:22:49.301Z,0.00
2022-12-06T04:23:49.294Z,0.00
2022-12-06T04:24:49.253Z,0.00
2022-12-06T04:25:49.224Z,0.00
2022-12-06T04:26:49.195Z,0.00
2022-12-06T04:27:49.159Z,0.00
2022-12-06T04:28:49.136Z,0.00
2022-12-06T04:29:49.109Z,0.00
2022-12-06T04:30:49.079Z,0.00
2022-12-06T04:31:49.154Z,0.00
2022-12-06T04:32:49.023Z,0.00
2022-12-06T04:33:48.993Z,0.00
2022-12-06T04:34:48.973Z,0.00
2022-12-06T04:35:48.942Z,0.00
2022-12-06T04:36:48.918Z,0.00
2022-12-06T04:37:48.884Z,0.00
2022-12-06T04:38:48.854Z,0.00
2022-12-06T04:39:48.851Z,0.00
2022-12-06T04:40:48.805Z,0.00
2022-12-06T04:41:48.768Z,0.00
2022-12-06T04:42:48.746Z,0.00
2022-12-06T04:43:48.713Z,0.00
2022-12-06T04:44:48.691Z,0.00
2022-12-06T04:45:48.655Z,0.00
2022-12-06T04:46:48.691Z,0.00
2022-12-06T04:47:48.598Z,0.00
2022-12-06T04:48:48.577Z,0.00
2022-12-06T04:49:48.547Z,0.00
2022-12-06T04:50:48.518Z,0.00
2022-12-06T04:51:48.492Z,0.00
2022-12-06T04:52:48.464Z,0.00
2022-12-06T04:53:48.434Z,0.00
2022-12-06T04:54:48.414Z,0.00
2022-12-06T04:55:48.397Z,0.00
2022-12-06T04:56:48.362Z,0.00
2022-12-06T04:57:48.320Z,0.00
2022-12-06T04:58:48.294Z,0.00
2022-12-06T04:59:48.262Z,0.00
2022-12-06T05:00:48.272Z,0.00
2022-12-06T05:01:48.210Z,0.00
2022-12-06T05:02:48.186Z,0.00
2022-12-06T05:03:48.211Z,0.00
2022-12-06T05:04:48.124Z,0.00
2022-12-06T05:05:48.098Z,0.00
2022-12-06T05:06:48.071Z,0.00
2022-12-06T05:07:48.087Z,0.00
2022-12-06T05:08:48.020Z,0.00
2022-12-06T05:09:47.993Z,0.00
2022-12-06T05:10:47.960Z,0.00
2022-12-06T05:11:47.961Z,0.00
2022-12-06T05:12:47.905Z,0.00
2022-12-06T05:13:47.875Z,0.00
2022-12-06T05:14:47.851Z,0.00
2022-12-06T05:15:47.818Z,0.00
2022-12-06T05:16:47.889Z,0.00
2022-12-06T05:17:47.765Z,0.00
2022-12-06T05:18:47.738Z,0.00
2022-12-06T05:19:47.707Z,0.00
2022-12-06T05:20:47.684Z,0.00
2022-12-06T05:21:47.653Z,0.00
2022-12-06T05:22:47.621Z,0.00
2022-12-06T05:23:47.593Z,0.00
2022-12-06T05:24:47.567Z,0.00
2022-12-06T05:25:47.534Z,0.00
2022-12-06T05:26:47.512Z,0.00
2022-12-06T05:27:47.594Z,0.00
2022-12-06T05:28:47.462Z,0.00
2022-12-06T05:29:47.430Z,0.00
2022-12-06T05:30:47.404Z,0.00
2022-12-06T05:31:47.450Z,0.00
2022-12-06T05:32:50.270Z,0.00
2022-12-06T05:33:47.314Z,0.00
2022-12-06T05:34:47.289Z,0.00
2022-12-06T05:35:47.259Z,0.00
2022-12-06T05:36:47.235Z,0.00
2022-12-06T05:37:47.206Z,0.00
2022-12-06T05:38:51.283Z,0.00
2022-12-06T05:39:47.147Z,0.00
2022-12-06T05:40:47.121Z,0.00
2022-12-06T05:41:47.090Z,0.00
2022-12-06T05:42:47.065Z,0.00
2022-12-06T05:43:47.187Z,0.00
2022-12-06T05:44:47.007Z,0.00
2022-12-06T05:45:47.028Z,0.00
2022-12-06T05:46:46.964Z,0.00
2022-12-06T05:47:46.923Z,0.00
2022-12-06T05:48:46.900Z,0.00
2022-12-06T05:49:46.865Z,0.00
2022-12-06T05:50:46.842Z,0.00
2022-12-06T05:51:46.818Z,0.00
2022-12-06T05:52:46.785Z,0.00
2022-12-06T05:53:46.756Z,0.00
2022-12-06T05:54:46.732Z,0.00
2022-12-06T05:55:46.704Z,0.00
2022-12-06T05:56:46.680Z,0.00
2022-12-06T05:57:47.516Z,0.00
2022-12-06T05:58:46.621Z,0.00
2022-12-06T05:59:46.611Z,0.00
2022-12-06T06:00:46.570Z,0.00
2022-12-06T06:01:46.598Z,0.00
2022-12-06T06:02:46.677Z,0.00
2022-12-06T06:03:47.997Z,0.00
2022-12-06T06:04:46.454Z,0.00
2022-12-06T06:05:46.426Z,0.00
2022-12-06T06:06:46.399Z,0.00
2022-12-06T06:07:46.438Z,0.00
2022-12-06T06:08:46.344Z,0.00
2022-12-06T06:09:46.311Z,0.00
2022-12-06T06:10:46.293Z,0.00
2022-12-06T06:11:46.255Z,0.00
2022-12-06T06:12:46.232Z,0.00
2022-12-06T06:13:46.204Z,0.00
2022-12-06T06:14:46.172Z,0.00
2022-12-06T06:15:46.169Z,0.00
2022-12-06T06:16:46.209Z,0.00
2022-12-06T06:17:46.092Z,0.00
2022-12-06T06:18:46.059Z,0.00
2022-12-06T06:19:51.176Z,0.00
2022-12-06T06:20:46.005Z,0.00
2022-12-06T06:21:45.987Z,0.00
2022-12-06T06:22:45.947Z,0.00
2022-12-06T06:23:45.928Z,0.00
2022-12-06T06:24:45.895Z,0.00
2022-12-06T06:25:45.873Z,0.00
2022-12-06T06:26:45.837Z,4.00
2022-12-06T06:27:45.814Z,4.00
2022-12-06T06:28:45.782Z,4.00
2022-12-06T06:29:45.813Z,4.00
2022-12-06T06:30:45.727Z,4.00
2022-12-06T06:31:45.812Z,4.00
2022-12-06T06:32:45.668Z,4.00
2022-12-06T06:33:45.648Z,0.00
2022-12-06T06:34:45.619Z,0.00
2022-12-06T06:35:45.596Z,4.00
2022-12-06T06:36:46.223Z,0.00
2022-12-06T06:37:45.536Z,0.00
2022-12-06T06:38:45.501Z,0.00
2022-12-06T06:39:45.479Z,0.00
2022-12-06T06:40:45.448Z,4.00
2022-12-06T06:41:45.430Z,4.00
2022-12-06T06:42:45.392Z,4.00
2022-12-06T06:43:45.370Z,4.00
2022-12-06T06:44:45.339Z,4.00
2022-12-06T06:45:45.373Z,4.00
2022-12-06T06:46:45.282Z,4.00
2022-12-06T06:47:45.278Z,4.00
2022-12-06T06:48:45.226Z,4.00
2022-12-06T06:49:45.203Z,4.00
2022-12-06T06:50:45.169Z,0.00
2022-12-06T06:51:45.149Z,0.00
2022-12-06T06:52:45.239Z,0.00
2022-12-06T06:53:45.110Z,0.00
2022-12-06T06:54:45.059Z,0.00
2022-12-06T06:55:45.046Z,0.00
2022-12-06T06:56:45.015Z,0.00
2022-12-06T06:57:44.983Z,0.00
2022-12-06T06:58:44.951Z,0.00
2022-12-06T06:59:44.936Z,0.00
2022-12-06T07:00:44.893Z,0.00
2022-12-06T07:01:44.923Z,0.00
2022-12-06T07:02:45.114Z,0.00
2022-12-06T07:03:44.837Z,0.00
2022-12-06T07:04:44.790Z,0.00
2022-12-06T07:05:44.757Z,0.00
2022-12-06T07:06:44.731Z,0.00
2022-12-06T07:07:44.780Z,0.00
2022-12-06T07:08:44.681Z,0.00
2022-12-06T07:09:44.648Z,0.00
2022-12-06T07:10:44.619Z,0.00
2022-12-06T07:11:44.599Z,0.00
2022-12-06T07:12:44.562Z,0.00
2022-12-06T07:13:49.509Z,4.00
2022-12-06T07:14:44.506Z,4.00
2022-12-06T07:15:44.480Z,4.00
2022-12-06T07:16:44.527Z,0.00
2022-12-06T07:17:44.432Z,0.00
2022-12-06T07:18:44.403Z,0.00
2022-12-06T07:19:44.390Z,0.00
2022-12-06T07:20:44.340Z,0.00
2022-12-06T07:21:44.317Z,4.00
2022-12-06T07:22:44.281Z,4.00
2022-12-06T07:23:44.265Z,4.00
2022-12-06T07:24:47.925Z,4.00
2022-12-06T07:25:44.213Z,4.00
2022-12-06T07:26:44.176Z,4.00
2022-12-06T07:27:44.152Z,0.00
2022-12-06T07:28:44.122Z,4.00
2022-12-06T07:29:44.107Z,4.00
2022-12-06T07:30:44.266Z,4.00
2022-12-06T07:31:44.041Z,4.00
2022-12-06T07:32:44.015Z,8.00
2022-12-06T07:33:43.991Z,4.00
2022-12-06T07:34:43.953Z,8.00
2022-12-06T07:36:10.908Z,8.00
2022-12-06T07:36:43.894Z,8.00
2022-12-06T07:37:43.876Z,8.00
2022-12-06T07:38:43.847Z,8.00
2022-12-06T07:39:43.816Z,8.00
2022-12-06T07:41:43.761Z,12.00
2022-12-06T07:42:43.731Z,12.00
2022-12-06T07:43:43.706Z,12.00
2022-12-06T07:44:43.679Z,12.00
2022-12-06T07:45:43.691Z,12.00
2022-12-06T07:46:43.618Z,12.00
2022-12-06T07:47:43.598Z,12.00
2022-12-06T07:48:43.560Z,16.00
2022-12-06T07:49:43.545Z,12.00
2022-12-06T07:50:43.512Z,16.00
2022-12-06T07:51:43.506Z,16.00
2022-12-06T07:52:43.451Z,12.00
2022-12-06T07:53:43.425Z,16.00
2022-12-06T07:54:43.393Z,12.00
2022-12-06T07:55:43.373Z,12.00
2022-12-06T07:56:43.344Z,16.00
2022-12-06T07:57:44.106Z,16.00
2022-12-06T07:58:43.285Z,16.00
2022-12-06T07:59:43.261Z,16.00
2022-12-06T08:00:43.227Z,16.00
2022-12-06T08:01:43.316Z,16.00
2022-12-06T08:02:43.178Z,20.00
2022-12-06T08:03:43.147Z,20.00
2022-12-06T08:04:43.202Z,16.00
2022-12-06T08:05:43.098Z,20.00
2022-12-06T08:06:43.068Z,16.00
2022-12-06T08:07:43.099Z,16.00
2022-12-06T08:08:43.014Z,16.00
2022-12-06T08:09:42.983Z,20.00
2022-12-06T08:10:42.954Z,16.00
2022-12-06T08:11:42.930Z,16.00
2022-12-06T08:12:42.898Z,20.00
2022-12-06T08:13:42.873Z,20.00
2022-12-06T08:14:42.840Z,20.00
2022-12-06T08:15:42.870Z,20.00
2022-12-06T08:16:42.787Z,20.00
2022-12-06T08:17:42.762Z,20.00
2022-12-06T08:18:42.735Z,16.00
2022-12-06T08:19:42.702Z,16.00
2022-12-06T08:20:42.673Z,16.00
2022-12-06T08:21:42.650Z,16.00
2022-12-06T08:22:42.619Z,16.00
2022-12-06T08:23:42.624Z,12.00
2022-12-06T08:24:42.562Z,12.00
2022-12-06T08:25:42.548Z,12.00
2022-12-06T08:26:42.510Z,16.00
2022-12-06T08:27:42.485Z,20.00
2022-12-06T08:28:42.451Z,20.00
2022-12-06T08:29:42.424Z,20.00
2022-12-06T08:30:42.478Z,20.00
2022-12-06T08:31:42.436Z,24.00
2022-12-06T08:32:42.341Z,20.00
2022-12-06T08:33:42.319Z,20.00
2022-12-06T08:34:42.283Z,24.00
2022-12-06T08:35:42.259Z,24.00
2022-12-06T08:36:42.232Z,24.00
2022-12-06T08:37:42.219Z,28.00
2022-12-06T08:38:42.173Z,28.00
2022-12-06T08:39:42.181Z,32.00
2022-12-06T08:40:42.130Z,36.00
2022-12-06T08:41:42.097Z,44.00
2022-12-06T08:42:42.063Z,44.00
2022-12-06T08:43:42.038Z,44.00
2022-12-06T08:44:42.006Z,48.00
2022-12-06T08:45:41.980Z,48.00
2022-12-06T08:46:41.998Z,56.00
2022-12-06T08:47:41.930Z,56.00
2022-12-06T08:48:43.582Z,56.00
2022-12-06T08:49:41.871Z,56.00
2022-12-06T08:50:41.846Z,56.00
2022-12-06T08:51:41.815Z,56.00
2022-12-06T08:52:41.792Z,52.00
2022-12-06T08:53:41.824Z,52.00
2022-12-06T08:54:41.725Z,56.00
2022-12-06T08:55:41.721Z,60.00
2022-12-06T08:56:41.670Z,56.00
2022-12-06T08:57:41.648Z,56.00
2022-12-06T08:58:41.628Z,56.00
2022-12-06T08:59:41.594Z,56.00
2022-12-06T09:00:41.564Z,60.00
2022-12-06T09:01:41.606Z,64.00
2022-12-06T09:02:41.513Z,64.00
2022-12-06T09:03:41.483Z,64.00
2022-12-06T09:04:41.567Z,60.00
2022-12-06T09:05:41.427Z,64.00
2022-12-06T09:06:41.394Z,60.00
2022-12-06T09:07:41.402Z,60.00
2022-12-06T09:08:41.340Z,64.00
2022-12-06T09:09:41.324Z,64.00
2022-12-06T09:10:41.285Z,60.00
2022-12-06T09:11:41.287Z,60.00
2022-12-06T09:12:41.232Z,64.00
2022-12-06T09:13:41.202Z,68.00
2022-12-06T09:14:41.173Z,64.00
2022-12-06T09:15:41.196Z,60.00
2022-12-06T09:16:41.124Z,72.00
2022-12-06T09:17:41.096Z,76.00
2022-12-06T09:18:41.059Z,80.00
2022-12-06T09:19:41.040Z,80.00
2022-12-06T09:20:41.007Z,84.00
2022-12-06T09:21:40.985Z,80.00
2022-12-06T09:22:40.951Z,76.00
2022-12-06T09:23:40.928Z,84.00
2022-12-06T09:24:40.899Z,88.00
2022-12-06T09:25:40.876Z,88.00
2022-12-06T09:26:40.837Z,84.00
2022-12-06T09:27:40.841Z,80.00
2022-12-06T09:28:40.785Z,76.00
2022-12-06T09:29:41.084Z,76.00
2022-12-06T09:30:40.733Z,72.00
2022-12-06T09:31:40.741Z,76.00
2022-12-06T09:32:40.675Z,72.00
2022-12-06T09:33:40.652Z,72.00
2022-12-06T09:34:40.621Z,68.00
2022-12-06T09:35:40.594Z,68.00
2022-12-06T09:36:40.563Z,68.00
2022-12-06T09:37:40.539Z,68.00
2022-12-06T09:38:40.510Z,72.00
2022-12-06T09:39:40.491Z,76.00
2022-12-06T09:40:43.037Z,80.00
2022-12-06T09:41:40.441Z,80.00
2022-12-06T09:42:40.399Z,84.00
2022-12-06T09:43:40.396Z,88.00
2022-12-06T09:44:40.346Z,84.00
2022-12-06T09:45:40.321Z,80.00
2022-12-06T09:46:40.333Z,80.00
2022-12-06T09:47:40.271Z,76.00
2022-12-06T09:48:45.675Z,72.00
2022-12-06T09:49:40.212Z,68.00
2022-12-06T09:50:40.183Z,64.00
2022-12-06T09:51:40.156Z,68.00
2022-12-06T09:52:40.126Z,72.00
2022-12-06T09:53:40.098Z,68.00
2022-12-06T09:54:40.063Z,64.00
2022-12-06T09:55:40.044Z,68.00
2022-12-06T09:56:40.017Z,72.00
2022-12-06T09:57:39.994Z,76.00
2022-12-06T09:58:39.955Z,80.00
2022-12-06T09:59:39.951Z,80.00
2022-12-06T10:00:39.898Z,80.00
2022-12-06T10:01:39.937Z,80.00
2022-12-06T10:02:39.951Z,88.00
2022-12-06T10:03:39.818Z,96.00
2022-12-06T10:04:39.804Z,104.00
2022-12-06T10:05:39.764Z,100.00
2022-12-06T10:06:39.734Z,96.00
2022-12-06T10:07:39.897Z,88.00
2022-12-06T10:08:39.790Z,88.00
2022-12-06T10:09:39.656Z,88.00
2022-12-06T10:10:39.623Z,84.00
2022-12-06T10:11:39.600Z,80.00
2022-12-06T10:12:39.571Z,76.00
2022-12-06T10:13:39.540Z,72.00
2022-12-06T10:14:39.509Z,72.00
2022-12-06T10:15:39.605Z,72.00
2022-12-06T10:16:39.638Z,76.00
2022-12-06T10:17:39.434Z,84.00
2022-12-06T10:18:39.411Z,80.00
2022-12-06T10:19:39.377Z,76.00
2022-12-06T10:20:39.344Z,76.00
2022-12-06T10:21:39.326Z,80.00
2022-12-06T10:22:39.295Z,88.00
2022-12-06T10:23:39.269Z,92.00
2022-12-06T10:24:39.237Z,92.00
2022-12-06T10:25:39.214Z,92.00
2022-12-06T10:26:39.182Z,92.00
2022-12-06T10:27:39.172Z,84.00
2022-12-06T10:28:39.127Z,88.00
2022-12-06T10:29:39.102Z,80.00
2022-12-06T10:30:39.076Z,80.00
2022-12-06T10:31:39.099Z,84.00
2022-12-06T10:32:39.023Z,88.00
2022-12-06T10:33:38.989Z,84.00
2022-12-06T10:34:41.000Z,88.00
2022-12-06T10:35:38.933Z,88.00
2022-12-06T10:36:38.902Z,84.00
2022-12-06T10:37:38.880Z,84.00
2022-12-06T10:38:38.850Z,80.00
2022-12-06T10:39:38.822Z,80.00
2022-12-06T10:40:38.795Z,76.00
2022-12-06T10:41:38.768Z,80.00
2022-12-06T10:42:38.759Z,80.00
2022-12-06T10:43:38.718Z,80.00
2022-12-06T10:44:38.686Z,84.00
2022-12-06T10:45:38.656Z,84.00
2022-12-06T10:46:38.675Z,76.00
2022-12-06T10:47:38.621Z,76.00
2022-12-06T10:48:38.602Z,72.00
2022-12-06T10:49:38.546Z,72.00
2022-12-06T10:50:38.521Z,76.00
2022-12-06T10:51:38.489Z,72.00
2022-12-06T10:52:38.466Z,72.00
2022-12-06T10:53:38.435Z,72.00
2022-12-06T10:54:38.409Z,68.00
2022-12-06T10:55:38.381Z,64.00
2022-12-06T10:56:38.358Z,60.00
2022-12-06T10:57:38.326Z,56.00
2022-12-06T10:58:38.308Z,56.00
2022-12-06T10:59:38.272Z,56.00
2022-12-06T11:00:38.289Z,60.00
2022-12-06T11:01:38.349Z,72.00
2022-12-06T11:02:38.356Z,76.00
2022-12-06T11:03:38.185Z,72.00
2022-12-06T11:04:38.139Z,72.00
2022-12-06T11:05:38.107Z,88.00
2022-12-06T11:06:38.075Z,120.00
2022-12-06T11:07:38.161Z,164.00
2022-12-06T11:08:38.029Z,208.00
2022-12-06T11:09:38.002Z,240.00
2022-12-06T11:10:37.968Z,244.00
2022-12-06T11:11:37.941Z,236.00
2022-12-06T11:12:37.914Z,240.00
2022-12-06T11:13:37.883Z,252.00
2022-12-06T11:14:37.855Z,256.00
2022-12-06T11:15:37.833Z,236.00
2022-12-06T11:16:37.866Z,208.00
2022-12-06T11:17:37.778Z,168.00
2022-12-06T11:18:37.754Z,152.00
2022-12-06T11:19:37.736Z,168.00
2022-12-06T11:20:37.695Z,172.00
2022-12-06T11:21:37.660Z,164.00
2022-12-06T11:22:37.655Z,160.00
2022-12-06T11:23:37.606Z,160.00
2022-12-06T11:24:37.668Z,168.00
2022-12-06T11:25:37.551Z,172.00
2022-12-06T11:26:37.533Z,176.00
2022-12-06T11:27:37.498Z,172.00
2022-12-06T11:28:37.476Z,148.00
2022-12-06T11:29:37.439Z,144.00
2022-12-06T11:30:37.417Z,160.00
2022-12-06T11:31:37.425Z,164.00
2022-12-06T11:32:37.364Z,164.00
2022-12-06T11:33:37.332Z,172.00
2022-12-06T11:34:37.309Z,168.00
2022-12-06T11:35:37.295Z,148.00
2022-12-06T11:36:37.253Z,136.00
2022-12-06T11:37:41.427Z,128.00
2022-12-06T11:38:37.194Z,116.00
2022-12-06T11:39:37.165Z,104.00
2022-12-06T11:40:37.144Z,108.00
2022-12-06T11:41:37.109Z,124.00
2022-12-06T11:42:37.091Z,160.00
2022-12-06T11:43:37.056Z,208.00
2022-12-06T11:44:37.031Z,232.00
2022-12-06T11:45:37.005Z,224.00
2022-12-06T11:46:37.042Z,196.00
2022-12-06T11:47:36.942Z,192.00
2022-12-06T11:48:36.922Z,308.00
2022-12-06T11:49:36.892Z,384.00
2022-12-06T11:50:36.867Z,264.00
2022-12-06T11:51:36.862Z,256.00
2022-12-06T11:52:36.811Z,248.00
2022-12-06T11:53:36.778Z,204.00
2022-12-06T11:54:36.758Z,220.00
2022-12-06T11:55:36.728Z,284.00
2022-12-06T11:56:36.704Z,424.00
2022-12-06T11:57:36.672Z,456.00
2022-12-06T11:58:36.652Z,396.00
2022-12-06T11:59:36.616Z,332.00
2022-12-06T12:00:36.590Z,252.00
2022-12-06T12:01:36.638Z,280.00
2022-12-06T12:02:36.656Z,324.00
2022-12-06T12:03:36.605Z,360.00
2022-12-06T12:04:36.487Z,340.00
2022-12-06T12:05:36.453Z,292.00
2022-12-06T12:06:36.426Z,224.00
2022-12-06T12:07:36.488Z,192.00
2022-12-06T12:08:36.424Z,172.00
2022-12-06T12:09:36.344Z,168.00
2022-12-06T12:10:36.319Z,168.00
2022-12-06T12:11:36.286Z,176.00
2022-12-06T12:12:36.260Z,192.00
2022-12-06T12:13:36.227Z,200.00
2022-12-06T12:14:36.209Z,204.00
2022-12-06T12:15:36.176Z,204.00
2022-12-06T12:16:36.228Z,208.00
2022-12-06T12:17:36.127Z,200.00
2022-12-06T12:18:36.097Z,184.00
2022-12-06T12:19:36.062Z,156.00
2022-12-06T12:20:36.043Z,132.00
2022-12-06T12:21:36.011Z,124.00
2022-12-06T12:22:35.988Z,112.00
2022-12-06T12:23:35.977Z,112.00
2022-12-06T12:24:56.440Z,104.00
2022-12-06T12:25:35.905Z,96.00
2022-12-06T12:26:35.876Z,92.00
2022-12-06T12:27:35.860Z,84.00
2022-12-06T12:28:35.825Z,80.00
2022-12-06T12:29:35.788Z,80.00
2022-12-06T12:30:35.760Z,80.00
2022-12-06T12:31:35.784Z,84.00
2022-12-06T12:32:35.710Z,84.00
2022-12-06T12:33:35.683Z,96.00
2022-12-06T12:34:40.141Z,104.00
2022-12-06T12:35:35.643Z,108.00
2022-12-06T12:36:35.597Z,116.00
2022-12-06T12:37:35.578Z,116.00
2022-12-06T12:38:35.545Z,112.00
2022-12-06T12:39:35.533Z,112.00
2022-12-06T12:40:35.491Z,108.00
2022-12-06T12:41:35.454Z,104.00
2022-12-06T12:42:35.438Z,104.00
2022-12-06T12:43:35.416Z,108.00
2022-12-06T12:44:38.346Z,112.00
2022-12-06T12:45:35.398Z,120.00
2022-12-06T12:46:35.403Z,128.00
2022-12-06T12:47:35.293Z,136.00
2022-12-06T12:48:35.271Z,148.00
2022-12-06T12:49:35.242Z,160.00
2022-12-06T12:50:35.213Z,176.00
2022-12-06T12:51:35.190Z,188.00
2022-12-06T12:52:35.157Z,208.00
2022-12-06T12:53:35.127Z,232.00
2022-12-06T12:54:35.105Z,216.00
2022-12-06T12:55:35.086Z,228.00
2022-12-06T12:56:35.054Z,284.00
2022-12-06T12:57:35.020Z,324.00
2022-12-06T12:58:36.253Z,312.00
2022-12-06T12:59:34.966Z,252.00
2022-12-06T13:00:34.938Z,240.00
2022-12-06T13:01:35.038Z,244.00
2022-12-06T13:02:35.015Z,228.00
2022-12-06T13:03:50.823Z,224.00
2022-12-06T13:04:34.844Z,220.00